createdAt,value
2023-04-07T00:00:17.002Z,2.21
2023-04-07T00:01:49.125Z,2.20
2023-04-07T00:03:23.175Z,2.20
2023-04-07T00:04:56.987Z,2.17
2023-04-07T00:06:29.232Z,2.19
2023-04-07T00:08:01.700Z,2.12
2023-04-07T00:09:34.454Z,2.11
2023-04-07T00:11:06.898Z,2.09
2023-04-07T00:12:42.092Z,2.04
2023-04-07T00:14:14.263Z,2.03
2023-04-07T00:15:46.393Z,2.03
2023-04-07T00:17:18.548Z,2.00
2023-04-07T00:18:50.535Z,1.97
2023-04-07T00:20:22.863Z,1.95
2023-04-07T00:21:54.939Z,1.96
2023-04-07T00:23:27.706Z,1.96
2023-04-07T00:24:59.799Z,1.95
2023-04-07T00:26:33.444Z,1.96
2023-04-07T00:28:05.459Z,2.06
2023-04-07T00:29:37.562Z,2.01
2023-04-07T00:31:09.726Z,2.03
2023-04-07T00:32:41.880Z,2.05
2023-04-07T00:34:14.009Z,2.03
2023-04-07T00:35:47.046Z,2.02
2023-04-07T00:37:19.722Z,1.97
2023-04-07T00:38:51.874Z,1.93
2023-04-07T00:40:24.312Z,1.88
2023-04-07T00:41:56.876Z,1.84
2023-04-07T00:43:29.003Z,1.80
2023-04-07T00:45:01.228Z,1.80
2023-04-07T00:46:33.903Z,1.82
2023-04-07T00:48:08.823Z,1.89
2023-04-07T00:49:40.968Z,1.81
2023-04-07T00:51:13.702Z,1.84
2023-04-07T00:52:46.499Z,1.82
2023-04-07T00:54:21.854Z,1.82
2023-04-07T00:55:53.954Z,1.80
2023-04-07T00:57:26.325Z,1.83
2023-04-07T00:58:58.450Z,1.78
2023-04-07T01:00:36.828Z,1.79
2023-04-07T01:02:15.106Z,1.76
2023-04-07T01:03:54.634Z,1.72
2023-04-07T01:05:53.283Z,1.65
2023-04-07T01:07:29.677Z,1.71
2023-04-07T01:10:38.772Z,1.71
2023-04-07T01:12:18.898Z,1.78
2023-04-07T01:13:52.055Z,1.76
2023-04-07T01:15:25.969Z,1.80
2023-04-07T01:16:59.038Z,1.81
2023-04-07T01:18:36.138Z,1.86
2023-04-07T01:20:08.892Z,1.81
2023-04-07T01:21:44.639Z,1.84
2023-04-07T01:23:24.176Z,1.89
2023-04-07T01:25:21.495Z,1.89
2023-04-07T01:27:00.433Z,1.85
2023-04-07T01:28:55.511Z,1.84
2023-04-07T01:30:33.918Z,1.75
2023-04-07T01:32:08.696Z,1.76
2023-04-07T01:33:46.520Z,1.76
2023-04-07T01:35:19.201Z,1.74
2023-04-07T01:36:51.844Z,1.77
2023-04-07T01:38:24.650Z,1.76
2023-04-07T01:39:56.725Z,1.74
2023-04-07T01:41:29.094Z,1.68
2023-04-07T01:43:02.117Z,1.65
2023-04-07T01:44:34.413Z,1.67
2023-04-07T01:46:06.680Z,1.65
2023-04-07T01:47:39.543Z,1.64
2023-04-07T01:49:12.394Z,1.63
2023-04-07T01:50:45.503Z,1.65
2023-04-07T01:52:17.882Z,1.66
2023-04-07T01:53:50.389Z,1.61
2023-04-07T01:55:22.824Z,1.59
2023-04-07T01:56:55.016Z,1.61
2023-04-07T01:58:27.690Z,1.59
2023-04-07T02:00:00.246Z,1.56
2023-04-07T02:01:32.589Z,1.53
2023-04-07T02:03:21.710Z,1.56
2023-04-07T02:04:58.830Z,1.52
2023-04-07T02:06:36.913Z,1.48
2023-04-07T02:08:09.464Z,1.48
2023-04-07T02:09:43.123Z,1.52
2023-04-07T02:11:17.187Z,1.57
2023-04-07T02:12:50.066Z,1.55
2023-04-07T02:14:24.717Z,1.58
2023-04-07T02:15:57.583Z,1.57
2023-04-07T02:17:30.538Z,1.52
2023-04-07T02:19:03.939Z,1.48
2023-04-07T02:20:36.181Z,1.45
2023-04-07T02:22:08.793Z,1.46
2023-04-07T02:23:41.029Z,1.40
2023-04-07T02:25:25.003Z,1.37
2023-04-07T02:26:58.096Z,1.24
2023-04-07T02:28:30.318Z,1.22
2023-04-07T02:30:02.395Z,1.19
2023-04-07T02:31:34.514Z,1.16
2023-04-07T02:33:06.654Z,1.17
2023-04-07T02:34:38.818Z,1.18
2023-04-07T02:36:11.080Z,1.20
2023-04-07T02:37:44.010Z,1.29
2023-04-07T02:39:16.385Z,1.30
2023-04-07T02:40:51.688Z,1.25
2023-04-07T02:42:36.759Z,1.15
2023-04-07T02:44:08.917Z,1.18
2023-04-07T02:45:41.020Z,1.20
2023-04-07T02:47:13.518Z,1.19
2023-04-07T02:48:45.586Z,1.19
2023-04-07T02:50:17.758Z,1.17
2023-04-07T02:51:49.893Z,1.17
2023-04-07T02:53:22.272Z,1.16
2023-04-07T02:54:54.314Z,1.15
2023-04-07T02:56:26.494Z,1.15
2023-04-07T02:57:58.696Z,1.19
2023-04-07T02:59:30.832Z,1.22
2023-04-07T03:01:03.013Z,1.27
2023-04-07T03:02:35.272Z,1.33
2023-04-07T03:04:07.734Z,1.31
2023-04-07T03:05:40.085Z,1.31
2023-04-07T03:07:12.172Z,1.27
2023-04-07T03:08:44.763Z,1.28
2023-04-07T03:10:16.956Z,1.30
2023-04-07T03:11:49.228Z,1.33
2023-04-07T03:13:21.770Z,1.38
2023-04-07T03:14:53.926Z,1.42
2023-04-07T03:16:26.000Z,1.44
2023-04-07T03:17:58.139Z,1.42
2023-04-07T03:19:30.487Z,1.43
2023-04-07T03:21:02.725Z,1.43
2023-04-07T03:22:34.901Z,1.43
2023-04-07T03:24:07.852Z,1.40
2023-04-07T03:25:40.000Z,1.39
2023-04-07T03:27:12.136Z,1.38
2023-04-07T03:28:44.250Z,1.37
2023-04-07T03:30:16.662Z,1.36
2023-04-07T03:31:48.985Z,1.39
2023-04-07T03:33:21.501Z,1.40
2023-04-07T03:34:53.676Z,1.41
2023-04-07T03:36:25.888Z,1.44
2023-04-07T03:37:58.003Z,1.49
2023-04-07T03:39:30.228Z,1.53
2023-04-07T03:41:02.376Z,1.55
2023-04-07T03:42:34.604Z,1.64
2023-04-07T03:44:07.448Z,1.68
2023-04-07T03:45:39.618Z,1.73
2023-04-07T03:47:12.304Z,1.71
2023-04-07T03:48:44.431Z,1.71
2023-04-07T03:50:16.684Z,1.73
2023-04-07T03:51:49.040Z,1.73
2023-04-07T03:53:21.414Z,1.75
2023-04-07T03:54:53.516Z,1.78
2023-04-07T03:56:27.932Z,1.81
2023-04-07T03:58:01.096Z,1.81
2023-04-07T03:59:33.459Z,1.87
2023-04-07T04:01:05.655Z,1.89
2023-04-07T04:02:37.916Z,1.94
2023-04-07T04:04:10.273Z,2.01
2023-04-07T04:05:42.659Z,2.03
2023-04-07T04:07:14.762Z,2.08
2023-04-07T04:08:46.945Z,2.11
2023-04-07T04:10:19.982Z,2.14
2023-04-07T04:11:52.299Z,2.16
2023-04-07T04:13:24.425Z,2.21
2023-04-07T04:14:56.603Z,2.24
2023-04-07T04:16:28.894Z,2.28
2023-04-07T04:18:01.132Z,2.30
2023-04-07T04:19:33.402Z,2.34
2023-04-07T04:21:05.590Z,2.35
2023-04-07T04:22:37.859Z,2.41
2023-04-07T04:24:09.964Z,2.45
2023-04-07T04:25:42.240Z,2.45
2023-04-07T04:28:46.300Z,2.52
2023-04-07T04:30:18.910Z,2.50
2023-04-07T04:31:51.080Z,2.51
2023-04-07T04:33:23.249Z,2.52
2023-04-07T04:34:55.450Z,2.56
2023-04-07T04:36:27.873Z,2.62
2023-04-07T04:38:00.022Z,2.62
2023-04-07T04:39:32.292Z,2.68
2023-04-07T04:41:04.504Z,2.73
2023-04-07T04:42:36.825Z,2.77
2023-04-07T04:44:09.178Z,2.82
2023-04-07T04:45:41.412Z,2.84
2023-04-07T04:47:13.582Z,2.90
2023-04-07T04:48:45.807Z,2.91
2023-04-07T04:50:18.011Z,2.95
2023-04-07T04:51:50.363Z,3.00
2023-04-07T04:53:22.697Z,3.02
2023-04-07T04:54:55.435Z,3.09
2023-04-07T04:56:27.574Z,3.10
2023-04-07T04:57:59.693Z,3.12
2023-04-07T04:59:31.902Z,3.14
2023-04-07T05:01:04.080Z,3.17
2023-04-07T05:02:37.490Z,3.21
2023-04-07T05:04:10.823Z,3.24
2023-04-07T05:05:43.260Z,3.38
2023-04-07T05:07:15.360Z,3.36
2023-04-07T05:08:47.610Z,3.39
2023-04-07T05:10:19.804Z,3.47
2023-04-07T05:11:52.056Z,3.52
2023-04-07T05:13:24.589Z,3.57
2023-04-07T05:14:57.141Z,3.62
2023-04-07T05:16:29.294Z,3.68
2023-04-07T05:18:01.526Z,3.71
2023-04-07T05:19:34.026Z,3.77
2023-04-07T05:21:06.229Z,3.83
2023-04-07T05:22:38.397Z,3.88
2023-04-07T05:24:10.488Z,3.96
2023-04-07T05:25:42.649Z,4.00
2023-04-07T05:27:14.837Z,4.04
2023-04-07T05:28:47.175Z,4.09
2023-04-07T05:30:19.514Z,4.13
2023-04-07T05:31:54.795Z,4.18
2023-04-07T05:33:26.984Z,4.24
2023-04-07T05:34:59.217Z,4.30
2023-04-07T05:36:32.189Z,4.35
2023-04-07T05:38:04.416Z,4.40
2023-04-07T05:39:36.719Z,4.44
2023-04-07T05:41:08.902Z,4.49
2023-04-07T05:42:41.123Z,4.55
2023-04-07T05:44:13.230Z,4.59
2023-04-07T05:45:45.344Z,4.66
2023-04-07T05:47:17.603Z,4.73
2023-04-07T05:48:49.833Z,4.79
2023-04-07T05:50:21.954Z,4.84
2023-04-07T05:51:54.085Z,4.91
2023-04-07T05:53:26.424Z,4.98
2023-04-07T05:54:58.481Z,5.03
2023-04-07T05:56:30.709Z,5.13
2023-04-07T05:58:02.874Z,5.18
2023-04-07T05:59:35.547Z,5.23
2023-04-07T06:01:07.700Z,5.29
2023-04-07T06:02:40.639Z,5.35
2023-04-07T06:04:12.865Z,5.41
2023-04-07T06:05:47.301Z,5.48
2023-04-07T06:07:19.463Z,5.52
2023-04-07T06:08:51.754Z,5.59
2023-04-07T06:10:23.912Z,5.65
2023-04-07T06:11:57.223Z,5.74
2023-04-07T06:13:29.464Z,5.77
2023-04-07T06:15:01.857Z,5.84
2023-04-07T06:16:34.117Z,5.89
2023-04-07T06:18:06.344Z,5.88
2023-04-07T06:19:38.551Z,5.94
2023-04-07T06:21:10.679Z,6.00
2023-04-07T06:22:42.823Z,6.04
2023-04-07T06:24:15.048Z,6.13
2023-04-07T06:25:48.422Z,6.25
2023-04-07T06:27:21.998Z,6.39
2023-04-07T06:28:54.008Z,6.52
2023-04-07T06:30:26.361Z,6.52
2023-04-07T06:31:58.840Z,6.55
2023-04-07T06:33:31.013Z,6.65
2023-04-07T06:35:03.875Z,6.70
2023-04-07T06:36:36.076Z,6.71
2023-04-07T06:38:08.599Z,6.77
2023-04-07T06:39:40.896Z,6.80
2023-04-07T06:41:17.372Z,6.82
2023-04-07T06:42:49.663Z,6.87
2023-04-07T06:44:21.838Z,6.88
2023-04-07T06:45:54.031Z,6.95
2023-04-07T06:47:26.230Z,6.97
2023-04-07T06:49:01.311Z,7.05
2023-04-07T06:50:33.502Z,7.09
2023-04-07T06:52:06.392Z,7.06
2023-04-07T06:53:38.580Z,7.09
2023-04-07T06:55:10.932Z,7.17
2023-04-07T06:56:43.945Z,7.17
2023-04-07T06:58:16.126Z,7.17
2023-04-07T06:59:48.428Z,7.22
2023-04-07T07:01:20.694Z,7.26
2023-04-07T07:02:52.973Z,7.30
2023-04-07T07:04:25.417Z,7.35
2023-04-07T07:06:00.348Z,7.38
2023-04-07T07:07:32.411Z,7.42
2023-04-07T07:09:04.639Z,7.48
2023-04-07T07:10:36.911Z,7.55
2023-04-07T07:12:09.055Z,7.61
2023-04-07T07:13:41.371Z,7.65
2023-04-07T07:15:13.456Z,7.71
2023-04-07T07:16:45.552Z,7.74
2023-04-07T07:18:18.486Z,7.85
2023-04-07T07:19:51.157Z,7.84
2023-04-07T07:21:23.232Z,7.85
2023-04-07T07:22:55.522Z,7.88
2023-04-07T07:24:29.627Z,7.93
2023-04-07T07:26:01.722Z,7.91
2023-04-07T07:27:33.916Z,7.97
2023-04-07T07:29:06.004Z,7.98
2023-04-07T07:30:40.776Z,7.94
2023-04-07T07:32:12.857Z,7.90
2023-04-07T07:33:46.799Z,7.93
2023-04-07T07:35:19.051Z,7.96
2023-04-07T07:36:51.487Z,7.99
2023-04-07T07:38:23.610Z,8.03
2023-04-07T07:39:56.701Z,8.05
2023-04-07T07:41:28.843Z,8.05
2023-04-07T07:43:01.880Z,8.08
2023-04-07T07:44:34.022Z,8.08
2023-04-07T07:46:06.215Z,8.05
2023-04-07T07:47:38.406Z,8.07
2023-04-07T07:49:10.513Z,8.12
2023-04-07T07:50:43.784Z,8.12
2023-04-07T07:52:16.010Z,8.15
2023-04-07T07:53:48.370Z,8.21
2023-04-07T07:55:21.150Z,8.22
2023-04-07T07:56:53.390Z,8.24
2023-04-07T07:58:25.930Z,8.26
2023-04-07T07:59:58.482Z,8.25
2023-04-07T08:01:31.545Z,8.25
2023-04-07T08:03:03.840Z,8.26
2023-04-07T08:04:37.159Z,8.27
2023-04-07T08:06:09.994Z,8.27
2023-04-07T08:07:43.600Z,8.32
2023-04-07T08:09:16.185Z,8.31
2023-04-07T08:10:49.249Z,8.37
2023-04-07T08:12:21.971Z,8.43
2023-04-07T08:13:54.681Z,8.47
2023-04-07T08:15:27.030Z,8.53
2023-04-07T08:16:59.225Z,8.50
2023-04-07T08:18:31.547Z,8.51
2023-04-07T08:20:04.698Z,8.51
2023-04-07T08:21:36.810Z,8.58
2023-04-07T08:23:09.002Z,8.64
2023-04-07T08:24:42.069Z,8.64
2023-04-07T08:26:14.226Z,8.65
2023-04-07T08:27:46.354Z,8.65
2023-04-07T08:29:18.465Z,8.69
2023-04-07T08:30:50.662Z,8.65
2023-04-07T08:32:22.775Z,8.67
2023-04-07T08:35:32.530Z,8.73
2023-04-07T08:37:04.644Z,8.67
2023-04-07T08:38:36.928Z,8.69
2023-04-07T08:40:09.804Z,8.71
2023-04-07T08:41:43.002Z,8.69
2023-04-07T08:43:15.226Z,8.70
2023-04-07T08:44:48.761Z,8.73
2023-04-07T08:46:24.155Z,8.70
2023-04-07T08:47:59.781Z,8.66
2023-04-07T08:49:33.189Z,8.54
2023-04-07T08:51:08.916Z,8.57
2023-04-07T08:52:57.894Z,8.60
2023-04-07T08:54:30.173Z,8.51
2023-04-07T08:56:02.669Z,8.40
2023-04-07T08:57:35.433Z,8.28
2023-04-07T08:59:18.934Z,8.21
2023-04-07T09:00:51.416Z,8.10
2023-04-07T09:02:24.281Z,8.15
2023-04-07T09:03:57.936Z,8.13
2023-04-07T09:05:29.825Z,8.23
2023-04-07T09:07:02.526Z,8.25
2023-04-07T09:10:13.400Z,8.35
2023-04-07T09:11:45.740Z,8.44
2023-04-07T09:13:17.846Z,8.43
2023-04-07T09:14:49.940Z,8.45
2023-04-07T09:16:22.764Z,8.30
2023-04-07T09:17:55.064Z,8.24
2023-04-07T09:19:27.958Z,8.40
2023-04-07T09:21:05.501Z,8.49
2023-04-07T09:22:43.025Z,8.57
2023-04-07T09:24:26.405Z,8.60
2023-04-07T09:26:02.273Z,8.60
2023-04-07T09:27:34.567Z,8.65
2023-04-07T09:29:07.795Z,8.73
2023-04-07T09:30:53.557Z,8.81
2023-04-07T09:32:44.582Z,8.91
2023-04-07T09:34:40.368Z,9.00
2023-04-07T09:36:13.144Z,9.02
2023-04-07T09:37:47.893Z,9.11
2023-04-07T09:39:20.899Z,9.20
2023-04-07T09:41:06.404Z,9.29
2023-04-07T09:42:48.722Z,9.36
2023-04-07T09:44:22.101Z,9.37
2023-04-07T09:46:11.768Z,9.40
2023-04-07T09:47:44.708Z,9.41
2023-04-07T09:49:17.167Z,9.46
2023-04-07T09:50:52.651Z,9.44
2023-04-07T09:52:47.733Z,9.45
2023-04-07T09:54:36.362Z,9.50
2023-04-07T09:56:12.722Z,9.53
2023-04-07T09:57:44.998Z,9.60
2023-04-07T09:59:20.277Z,9.59
2023-04-07T10:00:52.560Z,9.62
2023-04-07T10:02:27.260Z,9.71
2023-04-07T10:03:59.683Z,9.73
2023-04-07T10:05:33.752Z,9.85
2023-04-07T10:07:06.109Z,9.84
2023-04-07T10:08:40.262Z,9.79
2023-04-07T10:10:12.434Z,9.75
2023-04-07T10:11:45.040Z,9.74
2023-04-07T10:13:17.306Z,9.75
2023-04-07T10:14:49.452Z,9.76
2023-04-07T10:16:23.379Z,9.81
2023-04-07T10:17:57.342Z,9.83
2023-04-07T10:19:35.356Z,9.83
2023-04-07T10:21:08.562Z,9.85
2023-04-07T10:22:42.178Z,9.88
2023-04-07T10:24:33.064Z,9.83
2023-04-07T10:26:06.246Z,9.70
2023-04-07T10:27:50.997Z,9.67
2023-04-07T10:29:24.624Z,9.64
2023-04-07T10:30:57.559Z,9.67
2023-04-07T10:32:29.732Z,9.67
2023-04-07T10:34:03.157Z,9.70
2023-04-07T10:35:54.015Z,9.80
2023-04-07T10:37:26.717Z,9.84
2023-04-07T10:39:07.991Z,9.92
2023-04-07T10:40:41.653Z,9.77
2023-04-07T10:42:38.436Z,9.82
2023-04-07T10:44:12.215Z,9.82
2023-04-07T10:45:50.271Z,9.82
2023-04-07T10:47:22.475Z,9.86
2023-04-07T10:49:10.663Z,9.95
2023-04-07T10:50:43.132Z,9.90
2023-04-07T10:52:15.464Z,9.86
2023-04-07T10:54:23.377Z,9.93
2023-04-07T10:55:57.082Z,9.89
2023-04-07T10:57:29.571Z,9.85
2023-04-07T10:59:17.722Z,9.90
2023-04-07T11:01:08.065Z,9.87
2023-04-07T11:02:40.994Z,9.83
2023-04-07T11:04:13.741Z,9.84
2023-04-07T11:05:45.970Z,9.90
2023-04-07T11:07:44.439Z,9.99
2023-04-07T11:09:22.021Z,9.98
2023-04-07T11:10:54.106Z,9.91
2023-04-07T11:12:27.226Z,9.96
2023-04-07T11:13:59.299Z,9.86
2023-04-07T11:15:32.036Z,9.62
2023-04-07T11:17:04.977Z,9.76
2023-04-07T11:18:37.878Z,9.83
2023-04-07T11:20:10.496Z,9.81
2023-04-07T11:21:42.691Z,9.76
2023-04-07T11:24:55.777Z,9.72
2023-04-07T11:26:28.380Z,9.83
2023-04-07T11:28:01.177Z,9.84
2023-04-07T11:29:34.617Z,9.92
2023-04-07T11:31:06.857Z,9.96
2023-04-07T11:32:39.685Z,10.03
2023-04-07T11:34:12.440Z,10.05
2023-04-07T11:35:56.102Z,10.12
2023-04-07T11:37:29.216Z,10.14
2023-04-07T11:39:02.761Z,10.22
2023-04-07T11:40:35.506Z,10.26
2023-04-07T11:42:07.623Z,10.25
2023-04-07T11:43:42.588Z,10.25
2023-04-07T11:45:19.894Z,10.31
2023-04-07T11:47:03.896Z,10.33
2023-04-07T11:48:37.570Z,10.28
2023-04-07T11:50:10.616Z,10.29
2023-04-07T11:51:44.844Z,10.31
2023-04-07T11:53:34.773Z,10.36
2023-04-07T11:55:07.369Z,10.37
2023-04-07T11:56:45.128Z,10.34
2023-04-07T11:58:17.300Z,10.32
2023-04-07T11:59:50.258Z,10.33
2023-04-07T12:01:25.064Z,10.40
2023-04-07T12:02:58.294Z,10.36
2023-04-07T12:04:31.728Z,10.34
2023-04-07T12:06:04.085Z,10.39
2023-04-07T12:07:37.070Z,10.36
2023-04-07T12:09:11.441Z,10.33
2023-04-07T12:10:43.866Z,10.23
2023-04-07T12:12:26.133Z,10.26
2023-04-07T12:13:58.536Z,10.23
2023-04-07T12:15:30.867Z,10.19
2023-04-07T12:17:04.425Z,10.20
2023-04-07T12:18:37.045Z,10.16
2023-04-07T12:20:09.622Z,10.14
2023-04-07T12:21:41.804Z,10.12
2023-04-07T12:23:13.902Z,10.00
2023-04-07T12:24:46.568Z,10.09
2023-04-07T12:26:19.368Z,10.10
2023-04-07T12:27:52.736Z,10.16
2023-04-07T12:29:24.994Z,10.22
2023-04-07T12:30:57.210Z,10.23
2023-04-07T12:32:29.515Z,10.21
2023-04-07T12:34:02.061Z,10.27
2023-04-07T12:35:34.254Z,10.32
2023-04-07T12:37:06.584Z,10.33
2023-04-07T12:38:38.658Z,10.37
2023-04-07T12:40:12.155Z,10.39
2023-04-07T12:41:46.254Z,10.42
2023-04-07T12:43:18.333Z,10.42
2023-04-07T12:44:50.517Z,10.46
2023-04-07T12:46:22.810Z,10.46
2023-04-07T12:47:55.039Z,10.46
2023-04-07T12:49:27.654Z,10.45
2023-04-07T12:50:59.854Z,10.49
2023-04-07T12:52:32.463Z,10.51
2023-04-07T12:54:04.818Z,10.49
2023-04-07T12:55:37.805Z,10.52
2023-04-07T12:57:10.581Z,10.51
2023-04-07T12:58:43.434Z,10.39
2023-04-07T13:00:16.057Z,10.37
2023-04-07T13:01:50.629Z,10.37
2023-04-07T13:03:23.736Z,10.37
2023-04-07T13:04:56.256Z,10.32
2023-04-07T13:06:28.426Z,10.26
2023-04-07T13:08:00.632Z,10.17
2023-04-07T13:09:33.694Z,10.20
2023-04-07T13:11:05.957Z,10.23
2023-04-07T13:12:38.088Z,10.25
2023-04-07T13:14:10.190Z,10.28
2023-04-07T13:15:42.262Z,10.30
2023-04-07T13:17:14.523Z,10.31
2023-04-07T13:18:46.673Z,10.32
2023-04-07T13:20:20.796Z,10.21
2023-04-07T13:21:53.370Z,10.19
2023-04-07T13:23:28.355Z,10.10
2023-04-07T13:25:00.873Z,10.03
2023-04-07T13:26:34.148Z,9.93
2023-04-07T13:28:06.982Z,9.76
2023-04-07T13:29:39.117Z,9.53
2023-04-07T13:31:13.385Z,9.44
2023-04-07T13:32:45.520Z,9.30
2023-04-07T13:34:17.681Z,9.41
2023-04-07T13:35:49.951Z,9.44
2023-04-07T13:37:22.164Z,9.39
2023-04-07T13:38:54.328Z,9.36
2023-04-07T13:40:26.440Z,9.34
2023-04-07T13:41:58.738Z,9.37
2023-04-07T13:43:30.837Z,9.34
2023-04-07T13:45:03.009Z,9.23
2023-04-07T13:46:35.495Z,9.19
2023-04-07T13:48:07.642Z,9.15
2023-04-07T13:49:39.732Z,9.11
2023-04-07T13:51:12.032Z,9.07
2023-04-07T13:52:44.251Z,9.13
2023-04-07T13:54:18.629Z,9.08
2023-04-07T13:55:50.913Z,9.05
2023-04-07T13:57:23.179Z,9.14
2023-04-07T13:58:55.580Z,9.11
2023-04-07T14:00:27.644Z,9.17
2023-04-07T14:02:00.078Z,9.18
2023-04-07T14:03:32.432Z,9.21
2023-04-07T14:05:04.961Z,9.23
2023-04-07T14:06:38.322Z,9.28
2023-04-07T14:08:10.730Z,9.33
2023-04-07T14:09:43.281Z,9.38
2023-04-07T14:11:25.267Z,9.40
2023-04-07T14:12:57.575Z,9.34
2023-04-07T14:14:29.778Z,9.28
2023-04-07T14:16:02.047Z,9.29
2023-04-07T14:17:34.275Z,9.31
2023-04-07T14:19:07.378Z,9.25
2023-04-07T14:20:39.465Z,9.25
2023-04-07T14:22:11.607Z,9.25
2023-04-07T14:23:43.840Z,9.24
2023-04-07T14:25:18.955Z,9.18
2023-04-07T14:26:51.567Z,9.14
2023-04-07T14:28:23.917Z,9.15
2023-04-07T14:29:58.492Z,9.08
2023-04-07T14:31:30.754Z,9.11
2023-04-07T14:33:05.036Z,9.15
2023-04-07T14:34:37.578Z,9.16
2023-04-07T14:36:09.923Z,9.22
2023-04-07T14:37:42.185Z,9.19
2023-04-07T14:39:15.084Z,9.07
2023-04-07T14:40:47.765Z,8.97
2023-04-07T14:42:20.396Z,8.94
2023-04-07T14:43:56.649Z,8.96
2023-04-07T14:45:28.936Z,9.02
2023-04-07T14:47:01.279Z,9.08
2023-04-07T14:48:33.469Z,9.17
2023-04-07T14:50:05.910Z,9.22
2023-04-07T14:51:38.133Z,9.11
2023-04-07T14:53:10.340Z,9.06
2023-04-07T14:54:42.592Z,9.11
2023-04-07T14:56:14.775Z,9.07
2023-04-07T14:57:47.101Z,9.02
2023-04-07T14:59:19.215Z,9.00
2023-04-07T15:00:51.420Z,8.94
2023-04-07T15:02:23.750Z,8.96
2023-04-07T15:03:56.158Z,8.95
2023-04-07T15:05:30.176Z,8.88
2023-04-07T15:07:02.541Z,8.86
2023-04-07T15:08:34.840Z,8.82
2023-04-07T15:10:07.556Z,8.83
2023-04-07T15:11:39.723Z,8.81
2023-04-07T15:13:11.845Z,8.80
2023-04-07T15:14:51.021Z,8.81
2023-04-07T15:16:23.266Z,8.84
2023-04-07T15:17:55.468Z,8.78
2023-04-07T15:19:27.597Z,8.66
2023-04-07T15:20:59.850Z,8.65
2023-04-07T15:22:32.280Z,8.57
2023-04-07T15:24:04.539Z,8.59
2023-04-07T15:25:36.677Z,8.51
2023-04-07T15:27:09.720Z,8.53
2023-04-07T15:28:42.016Z,8.54
2023-04-07T15:30:14.162Z,8.53
2023-04-07T15:31:46.324Z,8.49
2023-04-07T15:33:18.937Z,8.58
2023-04-07T15:34:51.147Z,8.61
2023-04-07T15:36:23.236Z,8.60
2023-04-07T15:37:55.436Z,8.65
2023-04-07T15:39:27.488Z,8.69
2023-04-07T15:40:59.724Z,8.69
2023-04-07T15:42:34.005Z,8.62
2023-04-07T15:44:06.672Z,8.60
2023-04-07T15:45:45.249Z,8.59
2023-04-07T15:47:17.544Z,8.50
2023-04-07T15:48:49.833Z,8.42
2023-04-07T15:50:22.447Z,8.34
2023-04-07T15:51:54.793Z,8.37
2023-04-07T15:53:26.984Z,8.30
2023-04-07T15:56:37.205Z,8.27
2023-04-07T15:58:10.908Z,8.19
2023-04-07T15:59:43.246Z,8.14
2023-04-07T16:01:15.544Z,8.14
2023-04-07T16:02:47.943Z,8.15
2023-04-07T16:04:20.140Z,8.02
2023-04-07T16:05:52.361Z,7.97
2023-04-07T16:07:24.617Z,7.99
2023-04-07T16:08:56.910Z,8.03
2023-04-07T16:10:29.169Z,8.03
2023-04-07T16:12:01.359Z,8.02
2023-04-07T16:13:33.434Z,7.91
2023-04-07T16:15:11.763Z,7.82
2023-04-07T16:16:44.954Z,7.80
2023-04-07T16:18:17.333Z,7.68
2023-04-07T16:19:49.444Z,7.60
2023-04-07T16:21:21.717Z,7.55
2023-04-07T16:22:53.996Z,7.56
2023-04-07T16:26:11.550Z,7.60
2023-04-07T16:27:45.458Z,7.60
2023-04-07T16:29:18.490Z,7.62
2023-04-07T16:30:50.892Z,7.62
2023-04-07T16:32:23.288Z,7.57
2023-04-07T16:33:58.211Z,7.56
2023-04-07T16:35:32.243Z,7.53
2023-04-07T16:37:04.744Z,7.43
2023-04-07T16:38:36.976Z,7.47
2023-04-07T16:40:10.038Z,7.49
2023-04-07T16:41:42.227Z,7.48
2023-04-07T16:43:14.472Z,7.47
2023-04-07T16:44:46.678Z,7.49
2023-04-07T16:46:20.089Z,7.45
2023-04-07T16:47:52.268Z,7.54
2023-04-07T16:49:24.520Z,7.49
2023-04-07T16:50:56.790Z,7.44
2023-04-07T16:52:28.974Z,7.46
2023-04-07T16:54:01.433Z,7.48
2023-04-07T16:55:36.762Z,7.54
2023-04-07T16:57:09.100Z,7.55
2023-04-07T16:58:41.197Z,7.57
2023-04-07T17:00:13.954Z,7.58
2023-04-07T17:01:46.682Z,7.57
2023-04-07T17:03:19.288Z,7.60
2023-04-07T17:04:51.651Z,7.62
2023-04-07T17:06:23.973Z,7.62
2023-04-07T17:07:58.251Z,7.63
2023-04-07T17:11:17.960Z,7.66
2023-04-07T17:12:54.576Z,7.70
2023-04-07T17:14:26.877Z,7.68
2023-04-07T17:15:59.221Z,7.67
2023-04-07T17:17:31.509Z,7.65
2023-04-07T17:19:03.729Z,7.65
2023-04-07T17:20:35.975Z,7.61
2023-04-07T17:22:08.319Z,7.61
2023-04-07T17:23:40.564Z,7.59
2023-04-07T17:25:12.887Z,7.57
2023-04-07T17:26:47.234Z,7.59
2023-04-07T17:28:19.408Z,7.58
2023-04-07T17:29:51.526Z,7.53
2023-04-07T17:31:23.967Z,7.50
2023-04-07T17:32:56.517Z,7.47
2023-04-07T17:34:28.889Z,7.44
2023-04-07T17:36:04.076Z,7.46
2023-04-07T17:37:36.624Z,7.40
2023-04-07T17:39:08.935Z,7.39
2023-04-07T17:40:41.528Z,7.39
2023-04-07T17:42:13.934Z,7.37
2023-04-07T17:43:46.484Z,7.37
2023-04-07T17:45:19.335Z,7.37
2023-04-07T17:46:51.686Z,7.35
2023-04-07T17:48:23.979Z,7.37
2023-04-07T17:49:56.253Z,7.33
2023-04-07T17:51:29.233Z,7.33
2023-04-07T17:53:01.577Z,7.28
2023-04-07T17:54:34.462Z,7.26
2023-04-07T17:56:07.132Z,7.22
2023-04-07T17:57:39.532Z,7.19
2023-04-07T17:59:11.775Z,7.14
2023-04-07T18:00:43.969Z,7.13
2023-04-07T18:02:16.825Z,7.10
2023-04-07T18:03:50.272Z,7.07
2023-04-07T18:05:23.008Z,7.12
2023-04-07T18:06:55.290Z,7.04
2023-04-07T18:08:27.790Z,7.01
2023-04-07T18:10:00.204Z,6.99
2023-04-07T18:11:33.151Z,6.95
2023-04-07T18:13:06.107Z,6.94
2023-04-07T18:14:38.447Z,6.93
2023-04-07T18:16:12.338Z,6.91
2023-04-07T18:17:44.569Z,6.93
2023-04-07T18:19:17.917Z,6.92
2023-04-07T18:20:50.276Z,6.92
2023-04-07T18:22:23.068Z,6.93
2023-04-07T18:23:55.282Z,6.94
2023-04-07T18:25:27.588Z,6.93
2023-04-07T18:26:59.909Z,6.94
2023-04-07T18:28:32.285Z,6.93
2023-04-07T18:30:04.793Z,6.95
2023-04-07T18:31:36.973Z,6.93
2023-04-07T18:33:09.621Z,6.94
2023-04-07T18:34:41.974Z,6.92
2023-04-07T18:36:14.936Z,6.92
2023-04-07T18:37:47.292Z,6.89
2023-04-07T18:39:19.969Z,6.90
2023-04-07T18:40:52.211Z,6.87
2023-04-07T18:42:24.403Z,6.82
2023-04-07T18:43:56.795Z,6.79
2023-04-07T18:45:29.208Z,6.76
2023-04-07T18:47:01.894Z,6.76
2023-04-07T18:48:34.095Z,6.74
2023-04-07T18:50:06.837Z,6.76
2023-04-07T18:51:39.415Z,6.74
2023-04-07T18:53:12.236Z,6.73
2023-04-07T18:54:45.016Z,6.73
2023-04-07T18:56:17.275Z,6.72
2023-04-07T18:57:49.655Z,6.72
2023-04-07T18:59:24.581Z,6.72
2023-04-07T19:00:57.070Z,6.72
2023-04-07T19:02:29.298Z,6.70
2023-04-07T19:04:02.053Z,6.68
2023-04-07T19:05:34.520Z,6.65
2023-04-07T19:07:06.733Z,6.63
2023-04-07T19:08:38.877Z,6.62
2023-04-07T19:10:11.137Z,6.59
2023-04-07T19:11:43.254Z,6.56
2023-04-07T19:13:16.601Z,6.55
2023-04-07T19:14:49.158Z,6.53
2023-04-07T19:16:22.165Z,6.49
2023-04-07T19:17:54.350Z,6.48
2023-04-07T19:19:26.924Z,6.47
2023-04-07T19:20:59.102Z,6.44
2023-04-07T19:22:31.434Z,6.43
2023-04-07T19:24:03.635Z,6.44
2023-04-07T19:25:35.875Z,6.43
2023-04-07T19:27:08.154Z,6.39
2023-04-07T19:30:13.597Z,6.38
2023-04-07T19:31:45.826Z,6.37
2023-04-07T19:33:18.066Z,6.38
2023-04-07T19:34:50.248Z,6.38
2023-04-07T19:36:22.409Z,6.38
2023-04-07T19:37:54.567Z,6.39
2023-04-07T19:39:26.820Z,6.43
2023-04-07T19:40:58.910Z,6.42
2023-04-07T19:42:31.430Z,6.42
2023-04-07T19:44:03.647Z,6.40
2023-04-07T19:45:35.905Z,6.36
2023-04-07T19:47:08.133Z,6.33
2023-04-07T19:48:40.481Z,6.32
2023-04-07T19:50:15.147Z,6.34
2023-04-07T19:51:48.364Z,6.30
2023-04-07T19:53:20.552Z,6.22
2023-04-07T19:54:52.969Z,6.19
2023-04-07T19:56:25.498Z,6.17
2023-04-07T19:57:57.576Z,6.17
2023-04-07T19:59:29.685Z,6.16
2023-04-07T20:01:03.083Z,6.12
2023-04-07T20:02:36.340Z,6.11
2023-04-07T20:04:08.677Z,6.10
2023-04-07T20:05:40.896Z,6.08
2023-04-07T20:07:13.019Z,6.08
2023-04-07T20:08:45.173Z,6.08
2023-04-07T20:10:17.347Z,6.10
2023-04-07T20:11:50.213Z,6.11
2023-04-07T20:13:23.591Z,6.11
2023-04-07T20:14:55.819Z,6.12
2023-04-07T20:16:28.075Z,6.13
2023-04-07T20:18:00.594Z,6.13
2023-04-07T20:19:32.723Z,6.12
2023-04-07T20:21:08.567Z,6.10
2023-04-07T20:22:40.891Z,6.07
2023-04-07T20:24:13.649Z,6.07
2023-04-07T20:25:45.986Z,6.06
2023-04-07T20:27:18.823Z,6.05
2023-04-07T20:28:51.364Z,6.01
2023-04-07T20:30:23.662Z,6.01
2023-04-07T20:31:56.085Z,5.99
2023-04-07T20:33:28.315Z,5.98
2023-04-07T20:35:00.878Z,5.98
2023-04-07T20:36:32.965Z,5.97
2023-04-07T20:38:05.070Z,5.99
2023-04-07T20:39:37.487Z,6.00
2023-04-07T20:41:18.571Z,6.03
2023-04-07T20:42:50.746Z,5.97
2023-04-07T20:44:23.121Z,5.99
2023-04-07T20:45:55.582Z,5.99
2023-04-07T20:47:27.776Z,5.95
2023-04-07T20:48:59.910Z,5.92
2023-04-07T20:50:32.158Z,5.87
2023-04-07T20:52:04.410Z,5.84
2023-04-07T20:53:36.847Z,5.79
2023-04-07T20:55:09.812Z,5.77